PST,Max TemperatureF,Mean TemperatureF,Min TemperatureF,Max Dew PointF,MeanDew PointF,Min DewpointF,Max Humidity, Mean Humidity, Min Humidity, Max Sea Level PressureIn, Mean Sea Level PressureIn, Min Sea Level PressureIn, Max VisibilityMiles, Mean VisibilityMiles, Min VisibilityMiles, Max Wind SpeedMPH, Mean Wind SpeedMPH, Max Gust SpeedMPH,PrecipitationIn, CloudCover, Events, WindDirDegrees
2011-12-1,61,58,55,38,26,18,55,37,19,29.95,29.81,29.70,10,10,8,38,22,46,0.00,7,,345
2011-12-2,63,57,50,41,37,31,59,48,36,30.02,29.94,29.89,10,10,10,15,4,20,T,4,,120
2011-12-3,62,54,45,37,17,5,76,44,12,30.22,30.09,29.93,10,10,10,29,11,37,0.00,1,,332
2011-12-4,65,53,40,25,12,5,29,19,9,30.24,30.16,30.06,10,10,10,13,3,17,0.00,0,,318
2011-12-5,63,54,44,18,11,4,33,22,11,30.37,30.27,30.14,10,10,10,18,7,24,0.00,0,,335
2011-12-6,60,47,33,21,10,5,33,22,11,30.43,30.37,30.33,10,10,10,10,4,16,0.00,0,,19
2011-12-7,63,48,33,23,14,10,44,29,13,30.32,30.21,30.12,10,10,10,10,4,24,0.00,0,,346
2011-12-8,66,51,36,25,19,13,59,37,14,30.15,30.11,30.06,10,10,10,9,5,12,0.00,0,,347
2011-12-9,74,57,40,28,22,16,40,26,11,30.21,30.15,30.11,10,10,10,10,5,13,0.00,0,,322
2011-12-10,73,59,44,26,19,13,32,22,11,30.15,30.07,30.00,10,10,10,12,5,14,0.00,0,,343
2011-12-11,67,54,40,35,27,21,53,36,18,29.99,29.89,29.81,10,10,10,13,5,15,0.00,0,,340
2011-12-12,56,51,45,46,41,32,86,67,47,29.89,29.80,29.75,10,9,4,13,2,25,0.11,5,Rain,23
2011-12-13,59,52,45,45,42,37,93,72,51,30.05,29.93,29.88,10,10,7,8,3,17,0.00,4,,288
2011-12-14,66,53,39,40,37,33,86,59,31,30.24,30.18,30.07,10,10,10,7,1,12,0.00,0,,308
2011-12-15,63,50,37,38,35,32,85,61,36,30.21,30.12,30.03,10,10,9,16,4,22,0.00,2,,302
2011-12-16,65,58,50,33,26,22,48,34,20,30.14,30.09,30.06,10,10,10,20,9,24,0.00,5,,345
2011-12-17,64,60,56,47,37,26,46,37,27,30.15,30.10,30.04,10,10,9,21,7,25,0.02,7,Rain,299
2011-12-18,62,53,44,42,39,38,86,64,42,30.14,30.08,30.01,10,10,10,12,3,13,T,3,Rain,299
2011-12-19,65,53,41,41,38,37,82,60,37,30.05,30.01,29.96,10,10,10,18,2,41,0.00,1,,342
2011-12-20,68,57,45,41,32,24,82,51,20,30.06,30.00,29.94,10,10,10,20,3,23,0.00,1,,302
2011-12-21,69,55,40,35,29,22,65,41,17,30.04,29.98,29.91,10,10,10,9,4,14,0.00,0,,125
2011-12-22,62,56,49,35,4,-7,60,33,6,30.37,30.27,30.08,10,10,10,26,11,33,0.00,0,,352
2011-12-23,71,59,46,7,-4,-12,13,9,5,30.49,30.41,30.36,10,10,10,25,8,32,0.00,0,,272
2011-12-24,75,60,45,17,5,-6,16,10,4,30.41,30.37,30.31,10,10,10,12,5,14,0.00,0,,275
2011-12-25,71,57,43,27,17,8,31,21,11,30.38,30.30,30.23,10,10,10,12,6,13,0.00,0,,359
2011-12-26,69,53,37,26,18,11,45,29,12,30.30,30.25,30.20,10,10,10,10,4,16,0.00,0,,334
2011-12-27,69,54,39,26,21,13,51,32,12,30.26,30.22,30.17,10,10,10,10,4,,0.00,0,,330
2011-12-28,73,56,38,29,22,18,64,38,12,30.28,30.20,30.13,10,10,10,9,3,10,0.00,0,,328
2011-12-29,76,59,42,31,24,17,45,29,12,30.12,30.04,29.97,10,10,10,10,4,13,0.00,0,,329
2011-12-30,75,60,45,36,31,27,56,36,16,30.07,30.00,29.96,10,10,10,8,3,12,0.00,0,,331
2011-12-31,76,62,47,37,31,25,52,36,19,30.14,30.06,29.99,10,10,10,12,5,12,0.00,0,,336